createdAt,value
2023-03-22T00:00:03.543Z,91.04
2023-03-22T00:01:03.534Z,91.25
2023-03-22T00:02:03.520Z,90.94
2023-03-22T00:03:03.546Z,91.55
2023-03-22T00:04:03.624Z,90.73
2023-03-22T00:05:03.526Z,91.25
2023-03-22T00:06:03.490Z,91.45
2023-03-22T00:07:03.485Z,91.91
2023-03-22T00:08:03.475Z,92.11
2023-03-22T00:09:03.456Z,91.86
2023-03-22T00:10:03.471Z,91.76
2023-03-22T00:11:03.433Z,91.76
2023-03-22T00:12:03.447Z,91.66
2023-03-22T00:13:03.419Z,91.25
2023-03-22T00:14:03.424Z,91.66
2023-03-22T00:15:03.427Z,91.55
2023-03-22T00:16:03.413Z,91.76
2023-03-22T00:17:03.370Z,90.89
2023-03-22T00:18:03.364Z,91.00
2023-03-22T00:19:03.401Z,91.00
2023-03-22T00:20:03.376Z,91.35
2023-03-22T00:21:03.328Z,91.66
2023-03-22T00:22:03.334Z,91.25
2023-03-22T00:23:03.326Z,91.20
2023-03-22T00:24:03.318Z,91.20
2023-03-22T00:25:03.322Z,90.69
2023-03-22T00:26:03.286Z,90.89
2023-03-22T00:27:03.279Z,90.69
2023-03-22T00:28:03.269Z,90.59
2023-03-22T00:29:03.256Z,90.48
2023-03-22T00:30:03.274Z,90.80
2023-03-22T00:31:03.280Z,90.89
2023-03-22T00:32:03.227Z,91.10
2023-03-22T00:33:03.218Z,91.10
2023-03-22T00:34:03.225Z,91.10
2023-03-22T00:35:03.225Z,91.20
2023-03-22T00:36:03.189Z,90.89
2023-03-22T00:37:03.192Z,91.31
2023-03-22T00:38:03.170Z,91.41
2023-03-22T00:39:03.160Z,91.10
2023-03-22T00:40:03.181Z,91.31
2023-03-22T00:41:03.147Z,90.75
2023-03-22T00:42:03.132Z,90.75
2023-03-22T00:43:03.123Z,90.85
2023-03-22T00:44:03.125Z,90.55
2023-03-22T00:45:03.134Z,90.75
2023-03-22T00:46:03.138Z,91.00
2023-03-22T00:47:03.080Z,91.51
2023-03-22T00:48:03.093Z,91.41
2023-03-22T00:49:03.053Z,91.10
2023-03-22T00:50:03.080Z,90.75
2023-03-22T00:51:03.043Z,90.95
2023-03-22T00:52:03.033Z,91.16
2023-03-22T00:53:03.017Z,90.95
2023-03-22T00:54:03.032Z,91.37
2023-03-22T00:55:03.026Z,91.37
2023-03-22T00:56:02.996Z,91.47
2023-03-22T00:57:02.981Z,91.37
2023-03-22T00:58:02.972Z,91.27
2023-03-22T00:59:02.959Z,91.06
2023-03-22T01:00:02.985Z,90.85
2023-03-22T01:01:03.006Z,90.44
2023-03-22T01:02:02.938Z,89.99
2023-03-22T01:03:02.922Z,90.20
2023-03-22T01:04:06.062Z,90.20
2023-03-22T01:05:05.511Z,90.40
2023-03-22T01:06:04.904Z,90.40
2023-03-22T01:07:06.587Z,89.17
2023-03-22T01:08:04.379Z,89.69
2023-03-22T01:09:02.857Z,89.58
2023-03-22T01:10:02.875Z,89.99
2023-03-22T01:11:02.836Z,89.78
2023-03-22T01:12:02.837Z,90.61
2023-03-22T01:13:02.824Z,90.24
2023-03-22T01:14:02.820Z,90.75
2023-03-22T01:15:08.809Z,90.85
2023-03-22T01:16:02.911Z,90.65
2023-03-22T01:17:02.796Z,90.61
2023-03-22T01:18:03.529Z,90.40
2023-03-22T01:19:02.779Z,90.85
2023-03-22T01:20:02.775Z,91.06
2023-03-22T01:21:02.719Z,91.27
2023-03-22T01:22:02.732Z,90.95
2023-03-22T01:23:02.699Z,90.95
2023-03-22T01:24:02.742Z,91.06
2023-03-22T01:25:02.689Z,91.37
2023-03-22T01:26:02.685Z,91.16
2023-03-22T01:27:02.655Z,91.16
2023-03-22T01:28:02.673Z,90.55
2023-03-22T01:29:02.644Z,90.50
2023-03-22T01:30:02.634Z,89.89
2023-03-22T01:31:02.799Z,90.20
2023-03-22T01:32:02.602Z,90.61
2023-03-22T01:33:02.600Z,90.85
2023-03-22T01:34:02.607Z,91.16
2023-03-22T01:35:02.605Z,91.47
2023-03-22T01:36:02.649Z,90.75
2023-03-22T01:37:02.563Z,90.95
2023-03-22T01:38:02.544Z,91.37
2023-03-22T01:39:02.541Z,90.95
2023-03-22T01:40:02.665Z,91.37
2023-03-22T01:41:02.508Z,91.37
2023-03-22T01:42:02.505Z,91.47
2023-03-22T01:43:02.504Z,91.47
2023-03-22T01:44:02.581Z,91.57
2023-03-22T01:45:02.530Z,91.37
2023-03-22T01:46:02.539Z,91.37
2023-03-22T01:47:02.478Z,91.47
2023-03-22T01:48:02.554Z,91.99
2023-03-22T01:49:02.498Z,91.88
2023-03-22T01:50:02.469Z,91.78
2023-03-22T01:51:02.419Z,91.99
2023-03-22T01:52:02.440Z,91.78
2023-03-22T01:53:02.397Z,91.78
2023-03-22T01:54:02.395Z,91.88
2023-03-22T01:55:02.402Z,92.08
2023-03-22T01:56:02.392Z,91.99
2023-03-22T01:57:02.365Z,92.19
2023-03-22T01:58:02.366Z,92.08
2023-03-22T01:59:02.383Z,91.78
2023-03-22T02:00:02.340Z,91.47
2023-03-22T02:01:02.428Z,92.08
2023-03-22T02:02:02.313Z,91.78
2023-03-22T02:03:02.465Z,92.08
2023-03-22T02:04:02.295Z,91.78
2023-03-22T02:05:02.283Z,92.19
2023-03-22T02:06:02.296Z,92.29
2023-03-22T02:07:02.258Z,92.54
2023-03-22T02:08:02.258Z,92.33
2023-03-22T02:09:02.300Z,92.23
2023-03-22T02:10:02.241Z,92.54
2023-03-22T02:11:02.254Z,93.05
2023-03-22T02:12:02.217Z,92.95
2023-03-22T02:13:02.197Z,93.05
2023-03-22T02:14:02.197Z,92.54
2023-03-22T02:15:02.185Z,92.33
2023-03-22T02:16:02.344Z,92.23
2023-03-22T02:17:02.154Z,92.74
2023-03-22T02:18:02.157Z,92.85
2023-03-22T02:19:02.148Z,92.44
2023-03-22T02:20:02.146Z,92.50
2023-03-22T02:21:02.637Z,92.19
2023-03-22T02:22:02.126Z,92.19
2023-03-22T02:23:02.104Z,91.78
2023-03-22T02:24:02.099Z,90.95
2023-03-22T02:25:02.086Z,91.27
2023-03-22T02:26:02.094Z,91.42
2023-03-22T02:27:02.086Z,91.22
2023-03-22T02:28:02.057Z,91.33
2023-03-22T02:29:02.054Z,91.42
2023-03-22T02:30:02.084Z,90.40
2023-03-22T02:31:02.086Z,90.40
2023-03-22T02:32:02.007Z,90.50
2023-03-22T02:33:02.011Z,90.61
2023-03-22T02:34:01.990Z,90.61
2023-03-22T02:35:01.976Z,90.40
2023-03-22T02:36:01.991Z,90.30
2023-03-22T02:37:01.956Z,90.40
2023-03-22T02:38:01.949Z,90.30
2023-03-22T02:39:01.956Z,90.36
2023-03-22T02:40:01.969Z,89.95
2023-03-22T02:41:01.936Z,89.99
2023-03-22T02:42:01.911Z,89.43
2023-03-22T02:43:01.899Z,89.84
2023-03-22T02:44:01.887Z,90.56
2023-03-22T02:45:01.879Z,90.67
2023-03-22T02:46:01.892Z,89.43
2023-03-22T02:47:01.857Z,88.82
2023-03-22T02:48:01.916Z,88.92
2023-03-22T02:49:01.890Z,89.43
2023-03-22T02:50:01.829Z,89.64
2023-03-22T02:51:01.828Z,89.43
2023-03-22T02:52:01.816Z,90.16
2023-03-22T02:53:01.803Z,89.23
2023-03-22T02:54:01.883Z,89.43
2023-03-22T02:55:01.762Z,88.92
2023-03-22T02:56:01.802Z,89.13
2023-03-22T02:57:01.740Z,89.23
2023-03-22T02:58:01.744Z,89.43
2023-03-22T02:59:01.890Z,88.82
2023-03-22T03:00:01.754Z,88.92
2023-03-22T03:01:01.881Z,89.13
2023-03-22T03:02:01.820Z,88.82
2023-03-22T03:03:01.692Z,88.41
2023-03-22T03:04:01.685Z,88.72
2023-03-22T03:05:01.666Z,89.13
2023-03-22T03:06:01.706Z,89.13
2023-03-22T03:07:01.636Z,89.13
2023-03-22T03:08:01.649Z,89.64
2023-03-22T03:09:01.624Z,90.05
2023-03-22T03:10:01.644Z,89.13
2023-03-22T03:11:01.626Z,89.75
2023-03-22T03:12:01.605Z,89.75
2023-03-22T03:13:01.592Z,89.54
2023-03-22T03:14:01.617Z,89.95
2023-03-22T03:15:01.582Z,89.43
2023-03-22T03:16:01.631Z,89.64
2023-03-22T03:17:01.585Z,88.92
2023-03-22T03:18:01.538Z,89.03
2023-03-22T03:19:01.568Z,88.82
2023-03-22T03:20:01.525Z,89.23
2023-03-22T03:21:01.528Z,88.62
2023-03-22T03:22:01.483Z,88.51
2023-03-22T03:23:01.482Z,88.72
2023-03-22T03:24:01.548Z,88.92
2023-03-22T03:25:01.447Z,88.72
2023-03-22T03:26:01.468Z,89.13
2023-03-22T03:27:01.431Z,89.64
2023-03-22T03:28:01.424Z,89.33
2023-03-22T03:29:01.419Z,88.92
2023-03-22T03:30:01.403Z,89.13
2023-03-22T03:31:01.455Z,88.72
2023-03-22T03:32:01.381Z,89.13
2023-03-22T03:33:01.375Z,89.13
2023-03-22T03:34:01.421Z,88.62
2023-03-22T03:35:01.368Z,88.62
2023-03-22T03:36:01.344Z,89.13
2023-03-22T03:37:01.334Z,89.13
2023-03-22T03:38:01.316Z,88.92
2023-03-22T03:39:01.308Z,89.23
2023-03-22T03:40:01.295Z,88.92
2023-03-22T03:41:01.320Z,89.33
2023-03-22T03:42:01.281Z,88.82
2023-03-22T03:43:01.258Z,88.92
2023-03-22T03:44:01.319Z,89.03
2023-03-22T03:45:01.242Z,88.92
2023-03-22T03:46:01.321Z,89.75
2023-03-22T03:47:01.232Z,90.05
2023-03-22T03:48:01.284Z,89.43
2023-03-22T03:49:01.229Z,89.54
2023-03-22T03:50:01.206Z,89.23
2023-03-22T03:51:01.203Z,88.92
2023-03-22T03:52:01.170Z,88.82
2023-03-22T03:53:01.177Z,89.54
2023-03-22T03:54:01.189Z,89.43
2023-03-22T03:55:01.149Z,89.54
2023-03-22T03:56:01.162Z,89.95
2023-03-22T03:57:03.424Z,89.64
2023-03-22T03:58:01.118Z,90.05
2023-03-22T03:59:01.157Z,89.54
2023-03-22T04:00:01.073Z,89.64
2023-03-22T04:01:01.089Z,89.75
2023-03-22T04:02:01.105Z,89.84
2023-03-22T04:03:01.060Z,89.13
2023-03-22T04:04:01.118Z,88.82
2023-03-22T04:05:01.039Z,88.88
2023-03-22T04:06:01.090Z,88.78
2023-03-22T04:07:01.004Z,89.33
2023-03-22T04:08:01.015Z,89.43
2023-03-22T04:09:01.037Z,88.92
2023-03-22T04:10:00.990Z,89.13
2023-03-22T04:11:00.993Z,89.23
2023-03-22T04:12:00.952Z,88.82
2023-03-22T04:13:00.973Z,89.13
2023-03-22T04:14:01.028Z,89.03
2023-03-22T04:15:00.941Z,89.13
2023-03-22T04:16:00.913Z,88.68
2023-03-22T04:17:01.038Z,89.09
2023-03-22T04:18:00.949Z,88.88
2023-03-22T04:19:00.913Z,88.68
2023-03-22T04:20:00.880Z,88.88
2023-03-22T04:21:00.919Z,88.98
2023-03-22T04:22:00.847Z,88.88
2023-03-22T04:23:00.851Z,88.47
2023-03-22T04:24:00.866Z,88.88
2023-03-22T04:25:00.835Z,88.88
2023-03-22T04:26:00.853Z,89.39
2023-03-22T04:27:00.812Z,89.23
2023-03-22T04:28:00.792Z,89.23
2023-03-22T04:29:00.858Z,88.88
2023-03-22T04:30:00.797Z,89.13
2023-03-22T04:31:00.840Z,88.88
2023-03-22T04:32:00.752Z,89.13
2023-03-22T04:33:00.734Z,89.23
2023-03-22T04:34:00.734Z,89.54
2023-03-22T04:35:00.719Z,89.13
2023-03-22T04:36:02.946Z,89.13
2023-03-22T04:37:00.693Z,89.43
2023-03-22T04:38:00.759Z,89.75
2023-03-22T04:39:00.762Z,89.95
2023-03-22T04:40:00.662Z,89.75
2023-03-22T04:41:00.696Z,90.05
2023-03-22T04:42:00.641Z,89.13
2023-03-22T04:43:00.631Z,88.68
2023-03-22T04:44:00.636Z,88.88
2023-03-22T04:45:00.603Z,89.19
2023-03-22T04:46:00.642Z,89.43
2023-03-22T04:47:00.603Z,88.57
2023-03-22T04:48:00.608Z,88.98
2023-03-22T04:49:00.656Z,89.39
2023-03-22T04:50:00.495Z,89.50
2023-03-22T04:51:00.564Z,89.19
2023-03-22T04:52:00.490Z,88.78
2023-03-22T04:53:00.496Z,88.98
2023-03-22T04:54:00.513Z,88.88
2023-03-22T04:55:00.448Z,89.09
2023-03-22T04:56:00.444Z,89.13
2023-03-22T04:57:00.452Z,89.23
2023-03-22T04:58:00.410Z,89.54
2023-03-22T04:59:00.428Z,89.33
2023-03-22T05:00:00.400Z,89.43
2023-03-22T05:01:00.412Z,88.88
2023-03-22T05:02:00.450Z,88.27
2023-03-22T05:03:00.408Z,88.57
2023-03-22T05:04:00.342Z,88.17
2023-03-22T05:05:00.365Z,88.88
2023-03-22T05:06:00.344Z,88.98
2023-03-22T05:07:00.315Z,88.88
2023-03-22T05:08:00.335Z,88.68
2023-03-22T05:09:00.397Z,88.88
2023-03-22T05:10:00.316Z,88.57
2023-03-22T05:11:00.309Z,88.57
2023-03-22T05:12:00.260Z,88.06
2023-03-22T05:13:00.268Z,88.17
2023-03-22T05:14:00.372Z,88.37
2023-03-22T05:15:00.234Z,88.68
2023-03-22T05:16:00.348Z,88.47
2023-03-22T05:17:00.221Z,88.68
2023-03-22T05:18:00.217Z,88.78
2023-03-22T05:19:00.189Z,89.43
2023-03-22T05:20:00.191Z,89.13
2023-03-22T05:21:00.169Z,88.82
2023-03-22T05:22:00.149Z,89.03
2023-03-22T05:23:00.170Z,89.13
2023-03-22T05:24:00.227Z,88.92
2023-03-22T05:25:00.148Z,89.13
2023-03-22T05:26:00.113Z,89.33
2023-03-22T05:27:00.159Z,89.54
2023-03-22T05:28:00.096Z,89.43
2023-03-22T05:29:00.190Z,88.92
2023-03-22T05:30:00.129Z,89.54
2023-03-22T05:31:00.092Z,89.39
2023-03-22T05:32:00.073Z,89.29
2023-03-22T05:33:00.066Z,89.29
2023-03-22T05:34:00.211Z,88.78
2023-03-22T05:35:00.020Z,88.98
2023-03-22T05:36:00.034Z,88.78
2023-03-22T05:37:00.018Z,88.78
2023-03-22T05:37:59.989Z,88.88
2023-03-22T05:38:59.983Z,88.37
2023-03-22T05:39:59.957Z,87.92
2023-03-22T05:40:59.956Z,88.06
2023-03-22T05:41:59.979Z,87.96
2023-03-22T05:42:59.934Z,87.71
2023-03-22T05:43:59.939Z,88.12
2023-03-22T05:44:59.930Z,88.47
2023-03-22T05:45:59.949Z,88.17
2023-03-22T05:46:59.961Z,88.47
2023-03-22T05:47:59.932Z,88.78
2023-03-22T05:48:59.890Z,88.47
2023-03-22T05:49:59.853Z,88.47
2023-03-22T05:50:59.896Z,88.74
2023-03-22T05:51:59.858Z,88.98
2023-03-22T05:52:59.866Z,88.88
2023-03-22T05:53:59.870Z,88.47
2023-03-22T05:54:59.808Z,88.68
2023-03-22T05:55:59.804Z,88.57
2023-03-22T05:56:59.834Z,88.88
2023-03-22T05:57:59.790Z,88.88
2023-03-22T05:58:59.881Z,88.57
2023-03-22T05:59:59.765Z,88.37
2023-03-22T06:00:59.751Z,88.27
2023-03-22T06:01:59.768Z,88.47
2023-03-22T06:02:59.820Z,88.47
2023-03-22T06:03:59.840Z,89.19
2023-03-22T06:04:59.759Z,89.33
2023-03-22T06:05:59.706Z,89.84
2023-03-22T06:06:59.709Z,89.84
2023-03-22T06:07:59.691Z,89.75
2023-03-22T06:09:10.610Z,89.95
2023-03-22T06:09:59.661Z,89.95
2023-03-22T06:10:59.651Z,89.84
2023-03-22T06:11:59.690Z,89.75
2023-03-22T06:12:59.717Z,89.84
2023-03-22T06:13:59.636Z,89.75
2023-03-22T06:14:59.619Z,89.84
2023-03-22T06:15:59.597Z,89.29
2023-03-22T06:16:59.595Z,88.78
2023-03-22T06:17:59.590Z,88.57
2023-03-22T06:18:59.694Z,88.12
2023-03-22T06:19:59.566Z,88.23
2023-03-22T06:20:59.557Z,88.23
2023-03-22T06:21:59.548Z,87.82
2023-03-22T06:22:59.530Z,87.41
2023-03-22T06:23:59.648Z,88.02
2023-03-22T06:24:59.525Z,88.02
2023-03-22T06:25:59.494Z,87.67
2023-03-22T06:26:59.507Z,86.75
2023-03-22T06:27:59.467Z,86.44
2023-03-22T06:28:59.552Z,85.48
2023-03-22T06:29:59.465Z,84.22
2023-03-22T06:30:59.586Z,83.56
2023-03-22T06:31:59.531Z,83.01
2023-03-22T06:32:59.457Z,81.88
2023-03-22T06:33:59.605Z,81.65
2023-03-22T06:34:59.438Z,81.91
2023-03-22T06:35:59.396Z,80.44
2023-03-22T06:36:59.401Z,77.89
2023-03-22T06:37:59.387Z,77.24
2023-03-22T06:38:59.372Z,76.56
2023-03-22T06:39:59.348Z,76.25
2023-03-22T06:40:59.385Z,76.66
2023-03-22T06:41:59.361Z,76.15
2023-03-22T06:43:01.990Z,76.83
2023-03-22T06:43:59.317Z,76.46
2023-03-22T06:44:59.298Z,76.59
2023-03-22T06:45:59.380Z,78.77
2023-03-22T06:46:59.319Z,78.06
2023-03-22T06:47:59.277Z,78.37
2023-03-22T06:48:59.399Z,78.43
2023-03-22T06:49:59.244Z,77.92
2023-03-22T06:50:59.225Z,77.51
2023-03-22T06:51:59.259Z,77.72
2023-03-22T06:52:59.215Z,77.31
2023-03-22T06:53:59.272Z,77.34
2023-03-22T06:54:59.193Z,77.04
2023-03-22T06:55:59.199Z,77.75
2023-03-22T06:56:59.182Z,77.45
2023-03-22T06:57:59.153Z,77.75
2023-03-22T06:58:59.316Z,77.00
2023-03-22T06:59:59.163Z,77.27
2023-03-22T07:00:59.150Z,74.52
2023-03-22T07:01:59.160Z,72.78
2023-03-22T07:02:59.156Z,71.33
2023-03-22T07:03:59.182Z,68.90
2023-03-22T07:04:59.086Z,66.66
2023-03-22T07:05:59.083Z,67.03
2023-03-22T07:06:59.084Z,66.23
2023-03-22T07:07:59.058Z,67.24
2023-03-22T07:08:59.156Z,67.47
2023-03-22T07:09:59.057Z,67.03
2023-03-22T07:10:59.050Z,67.68
2023-03-22T07:11:59.049Z,67.24
2023-03-22T07:12:59.020Z,68.76
2023-03-22T07:13:58.996Z,68.55
2023-03-22T07:14:59.006Z,70.58
2023-03-22T07:15:59.056Z,71.77
2023-03-22T07:16:58.986Z,72.21
2023-03-22T07:17:58.953Z,73.88
2023-03-22T07:18:58.990Z,75.44
2023-03-22T07:19:58.933Z,75.44
2023-03-22T07:20:58.934Z,76.39
2023-03-22T07:21:58.924Z,76.90
2023-03-22T07:22:58.898Z,77.04
2023-03-22T07:23:58.909Z,75.71
2023-03-22T07:25:01.573Z,76.93
2023-03-22T07:25:58.868Z,76.53
2023-03-22T07:26:58.880Z,77.04
2023-03-22T07:27:58.853Z,78.06
2023-03-22T07:28:58.863Z,76.87
2023-03-22T07:29:58.823Z,79.02
2023-03-22T07:30:58.830Z,77.55
2023-03-22T07:31:58.854Z,76.87
2023-03-22T07:32:58.795Z,76.87
2023-03-22T07:33:58.783Z,78.27
2023-03-22T07:34:58.852Z,76.73
2023-03-22T07:35:58.789Z,76.53
2023-03-22T07:36:58.783Z,76.32
2023-03-22T07:37:58.739Z,76.09
2023-03-22T07:38:58.736Z,76.97
2023-03-22T07:39:58.743Z,76.25
2023-03-22T07:40:58.730Z,76.76
2023-03-22T07:41:58.702Z,75.64
2023-03-22T07:42:58.733Z,76.19
2023-03-22T07:44:15.050Z,75.27
2023-03-22T07:44:58.698Z,76.39
2023-03-22T07:46:04.717Z,75.95
2023-03-22T07:46:58.736Z,75.64
2023-03-22T07:47:58.723Z,75.23
2023-03-22T07:48:58.670Z,74.28
2023-03-22T07:49:58.659Z,73.23
2023-03-22T07:50:58.626Z,73.64
2023-03-22T07:51:58.622Z,73.87
2023-03-22T07:52:58.709Z,72.86
2023-03-22T07:53:58.614Z,71.70
2023-03-22T07:54:58.586Z,71.67
2023-03-22T07:55:58.579Z,71.97
2023-03-22T07:56:58.566Z,71.40
2023-03-22T07:57:58.600Z,71.43
2023-03-22T07:58:58.666Z,73.23
2023-03-22T07:59:58.541Z,72.96
2023-03-22T08:00:58.549Z,74.58
2023-03-22T08:01:58.755Z,74.15
2023-03-22T08:02:58.586Z,74.35
2023-03-22T08:03:58.528Z,75.67
2023-03-22T08:04:58.487Z,76.79
2023-03-22T08:05:58.495Z,73.94
2023-03-22T08:06:58.503Z,73.36
2023-03-22T08:07:58.491Z,74.73
2023-03-22T08:08:58.588Z,74.93
2023-03-22T08:09:59.332Z,76.05
2023-03-22T08:10:58.423Z,75.13
2023-03-22T08:11:58.430Z,73.81
2023-03-22T08:12:58.440Z,75.13
2023-03-22T08:13:58.410Z,73.91
2023-03-22T08:14:58.384Z,74.73
2023-03-22T08:15:58.387Z,74.11
2023-03-22T08:16:58.368Z,74.52
2023-03-22T08:17:58.428Z,74.21
2023-03-22T08:18:58.348Z,75.23
2023-03-22T08:19:58.335Z,74.42
2023-03-22T08:20:58.354Z,75.27
2023-03-22T08:21:58.331Z,74.86
2023-03-22T08:22:58.571Z,75.07
2023-03-22T08:23:58.307Z,74.86
2023-03-22T08:24:58.353Z,75.57
2023-03-22T08:25:58.320Z,76.25
2023-03-22T08:26:58.258Z,74.73
2023-03-22T08:27:58.273Z,75.23
2023-03-22T08:28:58.248Z,73.77
2023-03-22T08:29:58.259Z,73.36
2023-03-22T08:30:58.262Z,72.86
2023-03-22T08:31:58.270Z,73.36
2023-03-22T08:32:58.243Z,72.92
2023-03-22T08:33:58.202Z,72.48
2023-03-22T08:34:58.220Z,71.23
2023-03-22T08:35:58.212Z,71.23
2023-03-22T08:36:58.163Z,70.68
2023-03-22T08:37:58.177Z,70.38
2023-03-22T08:38:58.137Z,70.31
2023-03-22T08:39:58.202Z,70.75
2023-03-22T08:40:58.151Z,70.82
2023-03-22T08:41:58.112Z,71.33
2023-03-22T08:42:58.118Z,72.41
2023-03-22T08:43:58.097Z,69.49
2023-03-22T08:44:58.070Z,71.33
2023-03-22T08:45:58.106Z,70.35
2023-03-22T08:46:58.050Z,69.26
2023-03-22T08:47:58.101Z,69.77
2023-03-22T08:48:58.031Z,70.25
2023-03-22T08:49:58.019Z,71.26
2023-03-22T08:50:58.018Z,68.85
2023-03-22T08:51:58.028Z,70.10
2023-03-22T08:52:58.017Z,69.90
2023-03-22T08:53:57.996Z,70.51
2023-03-22T08:54:58.002Z,71.16
2023-03-22T08:55:57.977Z,72.38
2023-03-22T08:56:57.951Z,70.62
2023-03-22T08:57:58.000Z,69.49
2023-03-22T08:58:57.935Z,68.44
2023-03-22T08:59:57.944Z,68.35
2023-03-22T09:00:58.113Z,69.67
2023-03-22T09:01:58.001Z,68.65
2023-03-22T09:02:57.910Z,68.62
2023-03-22T09:03:57.974Z,69.13
2023-03-22T09:04:57.871Z,67.91
2023-03-22T09:05:57.864Z,67.91
2023-03-22T09:06:57.836Z,67.77
2023-03-22T09:08:05.897Z,68.11
2023-03-22T09:08:57.842Z,68.79
2023-03-22T09:09:57.811Z,67.36
2023-03-22T09:10:57.816Z,67.87
2023-03-22T09:11:57.791Z,69.57
2023-03-22T09:12:57.805Z,67.13
2023-03-22T09:13:57.777Z,68.24
2023-03-22T09:14:57.754Z,69.80
2023-03-22T09:15:57.774Z,67.83
2023-03-22T09:16:57.760Z,67.87
2023-03-22T09:17:57.752Z,68.79
2023-03-22T09:18:57.725Z,68.92
2023-03-22T09:20:11.091Z,68.75
2023-03-22T09:20:57.704Z,67.94
2023-03-22T09:21:57.684Z,67.63
2023-03-22T09:22:57.740Z,68.18
2023-03-22T09:23:57.670Z,64.84
2023-03-22T09:24:57.678Z,64.73
2023-03-22T09:25:57.641Z,64.76
2023-03-22T09:26:57.640Z,63.69
2023-03-22T09:27:57.635Z,63.23
2023-03-22T09:28:57.615Z,60.33
2023-03-22T09:29:57.598Z,59.22
2023-03-22T09:30:57.655Z,60.17
2023-03-22T09:31:57.582Z,58.20
2023-03-22T09:32:57.608Z,58.91
2023-03-22T09:33:57.588Z,56.88
2023-03-22T09:34:57.552Z,57.98
2023-03-22T09:35:57.555Z,59.52
2023-03-22T09:36:58.618Z,58.94
2023-03-22T09:37:57.541Z,58.80
2023-03-22T09:38:57.513Z,61.53
2023-03-22T09:39:57.492Z,61.40
2023-03-22T09:40:57.474Z,60.19
2023-03-22T09:41:57.468Z,59.55
2023-03-22T09:42:57.480Z,59.65
2023-03-22T09:43:57.456Z,61.17
2023-03-22T09:44:57.432Z,60.86
2023-03-22T09:45:57.466Z,61.47
2023-03-22T09:46:57.419Z,61.60
2023-03-22T09:47:57.444Z,62.17
2023-03-22T09:48:57.399Z,63.92
2023-03-22T09:49:57.381Z,62.52
2023-03-22T09:50:57.372Z,59.25
2023-03-22T09:51:57.385Z,61.20
2023-03-22T09:52:57.355Z,61.98
2023-03-22T09:53:57.353Z,59.34
2023-03-22T09:54:57.357Z,58.15
2023-03-22T09:55:57.317Z,57.34
2023-03-22T09:56:57.303Z,56.18
2023-03-22T09:57:57.325Z,59.00
2023-03-22T09:58:57.293Z,57.92
2023-03-22T09:59:57.298Z,58.78
2023-03-22T10:00:57.399Z,58.92
2023-03-22T10:01:57.504Z,59.32
2023-03-22T10:02:57.269Z,60.81
2023-03-22T10:03:57.427Z,58.30
2023-03-22T10:04:57.226Z,56.05
2023-03-22T10:05:57.230Z,56.38
2023-03-22T10:06:57.203Z,59.99
2023-03-22T10:07:57.225Z,55.29
2023-03-22T10:08:57.194Z,59.03
2023-03-22T10:09:57.174Z,58.00
2023-03-22T10:10:57.153Z,55.92
2023-03-22T10:11:57.159Z,56.05
2023-03-22T10:12:57.171Z,56.78
2023-03-22T10:13:57.145Z,55.98
2023-03-22T10:14:57.126Z,58.74
2023-03-22T10:15:57.199Z,59.55
2023-03-22T10:16:57.097Z,58.84
2023-03-22T10:17:57.119Z,59.32
2023-03-22T10:18:57.088Z,58.53
2023-03-22T10:19:57.075Z,56.23
2023-03-22T10:20:57.062Z,53.52
2023-03-22T10:21:57.050Z,50.58
2023-03-22T10:22:57.073Z,51.28
2023-03-22T10:23:57.064Z,53.12
2023-03-22T10:24:57.023Z,54.08
2023-03-22T10:25:57.031Z,54.25
2023-03-22T10:26:57.004Z,55.42
2023-03-22T10:27:57.978Z,57.27
2023-03-22T10:28:56.981Z,58.74
2023-03-22T10:29:56.976Z,57.70
2023-03-22T10:30:57.017Z,57.82
2023-03-22T10:31:57.105Z,58.20
2023-03-22T10:32:58.254Z,55.85
2023-03-22T10:33:56.983Z,56.10
2023-03-22T10:34:56.917Z,53.80
2023-03-22T10:35:57.018Z,53.72
2023-03-22T10:36:56.897Z,52.14
2023-03-22T10:37:56.919Z,53.50
2023-03-22T10:38:56.895Z,52.62
2023-03-22T10:39:56.865Z,50.96
2023-03-22T10:40:56.851Z,50.08
2023-03-22T10:41:58.056Z,49.70
2023-03-22T10:42:56.833Z,52.01
2023-03-22T10:43:56.852Z,53.25
2023-03-22T10:44:56.817Z,53.38
2023-03-22T10:45:56.814Z,55.32
2023-03-22T10:46:56.873Z,57.29
2023-03-22T10:47:56.826Z,53.14
2023-03-22T10:48:56.820Z,51.51
2023-03-22T10:49:56.776Z,53.42
2023-03-22T10:50:56.756Z,52.87
2023-03-22T10:51:56.760Z,52.74
2023-03-22T10:52:56.730Z,54.38
2023-03-22T10:53:56.801Z,52.94
2023-03-22T10:54:59.294Z,52.41
2023-03-22T10:55:56.705Z,53.20
2023-03-22T10:56:56.697Z,53.47
2023-03-22T10:57:56.689Z,52.51
2023-03-22T10:58:56.712Z,50.60
2023-03-22T10:59:56.669Z,50.07
2023-03-22T11:00:56.970Z,50.02
2023-03-22T11:01:56.858Z,48.57
2023-03-22T11:02:56.751Z,48.69
2023-03-22T11:03:56.665Z,51.23
2023-03-22T11:04:56.617Z,49.80
2023-03-22T11:05:56.615Z,48.07
2023-03-22T11:06:56.617Z,49.15
2023-03-22T11:07:56.593Z,51.13
2023-03-22T11:08:56.599Z,52.31
2023-03-22T11:09:56.615Z,55.16
2023-03-22T11:10:56.572Z,55.09
2023-03-22T11:11:56.538Z,54.16
2023-03-22T11:12:56.528Z,56.27
2023-03-22T11:13:56.569Z,54.53
2023-03-22T11:14:56.510Z,50.73
2023-03-22T11:15:56.520Z,49.37
2023-03-22T11:16:56.597Z,50.68
2023-03-22T11:17:56.478Z,50.10
2023-03-22T11:18:56.489Z,51.20
2023-03-22T11:19:56.483Z,50.93
2023-03-22T11:20:56.446Z,53.09
2023-03-22T11:21:56.438Z,54.99
2023-03-22T11:22:56.430Z,53.63
2023-03-22T11:23:56.485Z,55.44
2023-03-22T11:24:56.416Z,51.45
2023-03-22T11:25:56.412Z,51.43
2023-03-22T11:26:56.380Z,53.50
2023-03-22T11:27:56.441Z,51.89
2023-03-22T11:28:56.390Z,53.96
2023-03-22T11:29:56.361Z,54.63
2023-03-22T11:30:56.349Z,55.47
2023-03-22T11:31:56.530Z,54.05
2023-03-22T11:32:56.359Z,53.38
2023-03-22T11:33:56.345Z,53.55
2023-03-22T11:34:56.302Z,51.28
2023-03-22T11:35:56.337Z,49.59
2023-03-22T11:36:56.293Z,48.67
2023-03-22T11:37:56.275Z,50.40
2023-03-22T11:38:56.293Z,50.03
2023-03-22T11:39:56.253Z,45.95
2023-03-22T11:40:56.242Z,45.90
2023-03-22T11:41:56.243Z,46.61
2023-03-22T11:42:56.221Z,47.39
2023-03-22T11:43:56.275Z,48.69
2023-03-22T11:44:56.210Z,49.10
2023-03-22T11:45:56.222Z,50.56
2023-03-22T11:46:56.180Z,49.95
2023-03-22T11:47:56.338Z,48.41
2023-03-22T11:48:56.895Z,51.20
2023-03-22T11:49:56.154Z,51.59
2023-03-22T11:50:56.135Z,50.73
2023-03-22T11:51:56.137Z,48.72
2023-03-22T11:52:56.119Z,48.37
2023-03-22T11:53:56.186Z,48.85
2023-03-22T11:54:56.132Z,47.08
2023-03-22T11:55:56.100Z,50.02
2023-03-22T11:56:56.083Z,49.11
2023-03-22T11:57:56.070Z,52.06
2023-03-22T11:58:56.098Z,52.14
2023-03-22T11:59:56.056Z,49.75
2023-03-22T12:00:56.043Z,48.56
2023-03-22T12:01:56.030Z,49.62
2023-03-22T12:02:56.334Z,50.93
2023-03-22T12:03:56.249Z,50.12
2023-03-22T12:04:56.056Z,50.62
2023-03-22T12:05:56.024Z,50.93
2023-03-22T12:06:55.988Z,51.98
2023-03-22T12:07:55.971Z,52.61
2023-03-22T12:08:55.986Z,51.91
2023-03-22T12:09:56.535Z,52.72
2023-03-22T12:10:55.935Z,54.25
2023-03-22T12:11:55.944Z,53.55
2023-03-22T12:12:55.931Z,55.04
2023-03-22T12:13:55.930Z,51.93
2023-03-22T12:14:55.914Z,51.48
2023-03-22T12:15:55.912Z,53.38
2023-03-22T12:16:55.891Z,52.19
2023-03-22T12:17:55.886Z,51.86
2023-03-22T12:18:55.874Z,52.31
2023-03-22T12:19:55.840Z,49.52
2023-03-22T12:20:55.854Z,50.40
2023-03-22T12:21:55.832Z,48.57
2023-03-22T12:22:55.840Z,51.41
2023-03-22T12:23:55.825Z,48.03
2023-03-22T12:24:55.795Z,50.68
2023-03-22T12:25:55.786Z,49.35
2023-03-22T12:26:55.777Z,50.45
2023-03-22T12:27:55.755Z,50.20
2023-03-22T12:28:55.770Z,49.62
2023-03-22T12:29:55.756Z,49.59
2023-03-22T12:30:55.758Z,51.64
2023-03-22T12:31:55.784Z,50.37
2023-03-22T12:32:55.811Z,49.62
2023-03-22T12:33:55.720Z,48.82
2023-03-22T12:35:05.468Z,49.42
2023-03-22T12:35:55.745Z,51.08
2023-03-22T12:36:55.673Z,50.90
2023-03-22T12:37:55.662Z,51.33
2023-03-22T12:38:55.671Z,50.52
2023-03-22T12:39:55.660Z,50.30
2023-03-22T12:40:55.625Z,49.95
2023-03-22T12:41:55.649Z,49.70
2023-03-22T12:42:58.984Z,48.39
2023-03-22T12:43:55.649Z,48.59
2023-03-22T12:45:04.776Z,48.11
2023-03-22T12:45:55.606Z,48.52
2023-03-22T12:46:55.680Z,47.79
2023-03-22T12:47:55.653Z,46.94
2023-03-22T12:48:55.829Z,47.28
2023-03-22T12:49:55.532Z,47.91
2023-03-22T12:50:55.526Z,47.41
2023-03-22T12:51:55.511Z,47.74